sensor_id;sensor_type;location;lat;lon;timestamp;P1;durP1;ratioP1;P2;durP2;ratioP2
61144;SDS011;47026;51.208;3.288;2022-08-03T00:01:57;5.30;;;1.48;;
61144;SDS011;47026;51.208;3.288;2022-08-03T00:04:24;6.60;;;1.70;;
61144;SDS011;47026;51.208;3.288;2022-08-03T00:06:49;5.82;;;1.80;;
61144;SDS011;47026;51.208;3.288;2022-08-03T00:09:15;6.18;;;1.83;;
61144;SDS011;47026;51.208;3.288;2022-08-03T00:11:41;4.47;;;1.75;;
61144;SDS011;47026;51.208;3.288;2022-08-03T00:14:07;3.60;;;1.30;;
61144;SDS011;47026;51.208;3.288;2022-08-03T00:16:33;4.50;;;1.80;;
61144;SDS011;47026;51.208;3.288;2022-08-03T00:19:00;4.57;;;2.20;;
61144;SDS011;47026;51.208;3.288;2022-08-03T00:21:26;4.87;;;1.65;;
61144;SDS011;47026;51.208;3.288;2022-08-03T00:23:52;4.03;;;1.60;;
61144;SDS011;47026;51.208;3.288;2022-08-03T00:26:21;4.32;;;1.73;;
61144;SDS011;47026;51.208;3.288;2022-08-03T00:28:48;5.62;;;1.95;;
61144;SDS011;47026;51.208;3.288;2022-08-03T00:31:14;5.00;;;2.05;;
61144;SDS011;47026;51.208;3.288;2022-08-03T00:33:41;7.05;;;1.85;;
61144;SDS011;47026;51.208;3.288;2022-08-03T00:36:07;7.87;;;1.65;;
61144;SDS011;47026;51.208;3.288;2022-08-03T00:38:32;6.72;;;1.77;;
61144;SDS011;47026;51.208;3.288;2022-08-03T00:40:58;7.12;;;1.70;;
61144;SDS011;47026;51.208;3.288;2022-08-03T00:43:25;8.80;;;2.28;;
61144;SDS011;47026;51.208;3.288;2022-08-03T00:45:51;6.07;;;2.00;;
61144;SDS011;47026;51.208;3.288;2022-08-03T00:48:18;5.22;;;2.15;;
61144;SDS011;47026;51.208;3.288;2022-08-03T00:50:44;7.25;;;1.98;;
61144;SDS011;47026;51.208;3.288;2022-08-03T00:53:12;6.60;;;1.80;;
61144;SDS011;47026;51.208;3.288;2022-08-03T00:55:39;7.60;;;2.72;;
61144;SDS011;47026;51.208;3.288;2022-08-03T00:58:06;9.73;;;2.33;;
61144;SDS011;47026;51.208;3.288;2022-08-03T01:00:33;4.40;;;1.95;;
61144;SDS011;47026;51.208;3.288;2022-08-03T01:03:03;5.50;;;2.10;;
61144;SDS011;47026;51.208;3.288;2022-08-03T01:05:30;8.38;;;2.10;;
61144;SDS011;47026;51.208;3.288;2022-08-03T01:08:17;7.10;;;2.22;;
61144;SDS011;47026;51.208;3.288;2022-08-03T01:27:35;4.85;;;2.17;;
61144;SDS011;47026;51.208;3.288;2022-08-03T01:30:16;9.63;;;2.33;;
61144;SDS011;47026;51.208;3.288;2022-08-03T01:35:16;9.80;;;2.50;;
61144;SDS011;47026;51.208;3.288;2022-08-03T01:37:56;7.18;;;2.65;;
61144;SDS011;47026;51.208;3.288;2022-08-03T01:40:26;6.90;;;2.45;;
61144;SDS011;47026;51.208;3.288;2022-08-03T01:42:54;6.95;;;2.65;;
61144;SDS011;47026;51.208;3.288;2022-08-03T01:45:22;9.35;;;2.80;;
61144;SDS011;47026;51.208;3.288;2022-08-03T01:47:51;10.25;;;2.85;;
61144;SDS011;47026;51.208;3.288;2022-08-03T01:50:22;9.35;;;2.75;;
61144;SDS011;47026;51.208;3.288;2022-08-03T01:52:51;10.35;;;2.87;;
61144;SDS011;47026;51.208;3.288;2022-08-03T01:55:20;7.80;;;2.50;;
61144;SDS011;47026;51.208;3.288;2022-08-03T01:57:48;6.15;;;2.67;;
61144;SDS011;47026;51.208;3.288;2022-08-03T02:00:15;8.90;;;2.70;;
61144;SDS011;47026;51.208;3.288;2022-08-03T02:02:43;9.15;;;2.97;;
61144;SDS011;47026;51.208;3.288;2022-08-03T02:05:12;9.50;;;2.60;;
61144;SDS011;47026;51.208;3.288;2022-08-03T02:07:40;8.55;;;2.90;;
61144;SDS011;47026;51.208;3.288;2022-08-03T02:10:07;9.95;;;3.03;;
61144;SDS011;47026;51.208;3.288;2022-08-03T02:12:35;13.27;;;2.95;;
61144;SDS011;47026;51.208;3.288;2022-08-03T02:15:02;12.10;;;3.05;;
61144;SDS011;47026;51.208;3.288;2022-08-03T02:17:29;7.32;;;3.53;;
61144;SDS011;47026;51.208;3.288;2022-08-03T02:19:58;9.82;;;2.92;;
61144;SDS011;47026;51.208;3.288;2022-08-03T02:22:25;10.18;;;2.87;;
61144;SDS011;47026;51.208;3.288;2022-08-03T02:24:53;10.52;;;2.87;;
61144;SDS011;47026;51.208;3.288;2022-08-03T02:27:23;8.10;;;3.10;;
61144;SDS011;47026;51.208;3.288;2022-08-03T02:29:55;7.87;;;2.75;;
61144;SDS011;47026;51.208;3.288;2022-08-03T02:32:36;7.83;;;2.87;;
61144;SDS011;47026;51.208;3.288;2022-08-03T02:35:05;10.85;;;2.70;;
61144;SDS011;47026;51.208;3.288;2022-08-03T02:37:37;5.82;;;3.12;;
61144;SDS011;47026;51.208;3.288;2022-08-03T02:40:07;6.28;;;3.03;;
61144;SDS011;47026;51.208;3.288;2022-08-03T02:42:36;10.30;;;3.50;;
61144;SDS011;47026;51.208;3.288;2022-08-03T02:45:05;8.07;;;2.78;;
61144;SDS011;47026;51.208;3.288;2022-08-03T02:47:38;11.02;;;3.17;;
61144;SDS011;47026;51.208;3.288;2022-08-03T02:50:07;12.60;;;3.30;;
61144;SDS011;47026;51.208;3.288;2022-08-03T02:52:35;7.37;;;3.67;;
61144;SDS011;47026;51.208;3.288;2022-08-03T02:55:02;10.07;;;3.47;;
61144;SDS011;47026;51.208;3.288;2022-08-03T02:57:30;8.63;;;3.58;;
61144;SDS011;47026;51.208;3.288;2022-08-03T02:59:57;9.63;;;3.90;;
61144;SDS011;47026;51.208;3.288;2022-08-03T03:02:25;7.53;;;2.90;;
61144;SDS011;47026;51.208;3.288;2022-08-03T03:04:53;11.80;;;3.67;;
61144;SDS011;47026;51.208;3.288;2022-08-03T03:07:20;9.13;;;3.33;;
61144;SDS011;47026;51.208;3.288;2022-08-03T03:09:47;9.90;;;3.30;;
61144;SDS011;47026;51.208;3.288;2022-08-03T03:12:13;7.00;;;3.05;;
61144;SDS011;47026;51.208;3.288;2022-08-03T03:14:40;9.55;;;3.42;;
61144;SDS011;47026;51.208;3.288;2022-08-03T03:17:06;7.57;;;3.05;;
61144;SDS011;47026;51.208;3.288;2022-08-03T03:19:35;7.65;;;3.35;;
61144;SDS011;47026;51.208;3.288;2022-08-03T03:22:05;10.57;;;3.87;;
61144;SDS011;47026;51.208;3.288;2022-08-03T03:24:33;10.70;;;3.42;;
61144;SDS011;47026;51.208;3.288;2022-08-03T03:27:00;8.43;;;3.35;;
61144;SDS011;47026;51.208;3.288;2022-08-03T03:29:27;7.45;;;3.30;;
61144;SDS011;47026;51.208;3.288;2022-08-03T03:31:54;8.93;;;3.12;;
61144;SDS011;47026;51.208;3.288;2022-08-03T03:34:21;9.82;;;3.37;;
61144;SDS011;47026;51.208;3.288;2022-08-03T03:36:48;9.25;;;3.28;;
61144;SDS011;47026;51.208;3.288;2022-08-03T03:39:14;7.97;;;3.30;;
61144;SDS011;47026;51.208;3.288;2022-08-03T03:41:40;9.75;;;3.35;;
61144;SDS011;47026;51.208;3.288;2022-08-03T03:44:06;7.40;;;3.28;;
61144;SDS011;47026;51.208;3.288;2022-08-03T03:46:32;7.40;;;3.40;;
61144;SDS011;47026;51.208;3.288;2022-08-03T03:48:58;9.57;;;3.92;;
61144;SDS011;47026;51.208;3.288;2022-08-03T03:51:24;10.80;;;3.37;;
61144;SDS011;47026;51.208;3.288;2022-08-03T03:54:00;10.40;;;3.30;;
61144;SDS011;47026;51.208;3.288;2022-08-03T03:56:27;10.07;;;3.70;;
61144;SDS011;47026;51.208;3.288;2022-08-03T03:58:53;17.10;;;3.42;;
61144;SDS011;47026;51.208;3.288;2022-08-03T04:01:20;12.37;;;3.30;;
61144;SDS011;47026;51.208;3.288;2022-08-03T04:03:46;8.18;;;3.37;;
61144;SDS011;47026;51.208;3.288;2022-08-03T04:06:13;13.43;;;4.05;;
61144;SDS011;47026;51.208;3.288;2022-08-03T04:08:59;12.65;;;3.90;;
61144;SDS011;47026;51.208;3.288;2022-08-03T04:11:53;10.70;;;3.37;;
61144;SDS011;47026;51.208;3.288;2022-08-03T04:14:27;8.02;;;3.42;;
61144;SDS011;47026;51.208;3.288;2022-08-03T04:16:58;6.87;;;3.30;;
61144;SDS011;47026;51.208;3.288;2022-08-03T04:19:35;12.73;;;3.50;;
61144;SDS011;47026;51.208;3.288;2022-08-03T04:22:08;8.90;;;3.35;;
61144;SDS011;47026;51.208;3.288;2022-08-03T04:24:42;7.53;;;3.10;;
61144;SDS011;47026;51.208;3.288;2022-08-03T04:27:13;7.00;;;2.65;;
61144;SDS011;47026;51.208;3.288;2022-08-03T04:29:45;9.75;;;3.55;;
61144;SDS011;47026;51.208;3.288;2022-08-03T04:32:13;6.85;;;3.20;;
61144;SDS011;47026;51.208;3.288;2022-08-03T04:34:40;8.45;;;3.92;;
61144;SDS011;47026;51.208;3.288;2022-08-03T04:37:52;8.73;;;3.72;;
61144;SDS011;47026;51.208;3.288;2022-08-03T04:40:14;8.38;;;3.55;;
61144;SDS011;47026;51.208;3.288;2022-08-03T04:42:45;13.48;;;4.10;;
61144;SDS011;47026;51.208;3.288;2022-08-03T04:45:13;10.30;;;3.72;;
61144;SDS011;47026;51.208;3.288;2022-08-03T04:47:40;10.00;;;3.53;;
61144;SDS011;47026;51.208;3.288;2022-08-03T04:50:07;11.40;;;3.60;;
61144;SDS011;47026;51.208;3.288;2022-08-03T04:52:34;9.10;;;3.37;;
61144;SDS011;47026;51.208;3.288;2022-08-03T04:55:01;6.70;;;3.75;;
61144;SDS011;47026;51.208;3.288;2022-08-03T04:57:27;8.25;;;3.75;;
61144;SDS011;47026;51.208;3.288;2022-08-03T04:59:53;10.45;;;3.28;;
61144;SDS011;47026;51.208;3.288;2022-08-03T05:02:20;13.38;;;3.92;;
61144;SDS011;47026;51.208;3.288;2022-08-03T05:04:47;12.25;;;3.90;;
61144;SDS011;47026;51.208;3.288;2022-08-03T05:07:14;10.00;;;3.95;;
61144;SDS011;47026;51.208;3.288;2022-08-03T05:09:41;11.35;;;4.40;;
61144;SDS011;47026;51.208;3.288;2022-08-03T05:12:07;10.27;;;4.97;;
61144;SDS011;47026;51.208;3.288;2022-08-03T05:14:33;11.50;;;4.00;;
61144;SDS011;47026;51.208;3.288;2022-08-03T05:17:02;10.82;;;4.72;;
61144;SDS011;47026;51.208;3.288;2022-08-03T05:19:28;7.00;;;4.75;;
61144;SDS011;47026;51.208;3.288;2022-08-03T05:21:54;14.02;;;5.32;;
61144;SDS011;47026;51.208;3.288;2022-08-03T05:24:20;11.23;;;5.47;;
61144;SDS011;47026;51.208;3.288;2022-08-03T05:26:46;9.90;;;4.87;;
61144;SDS011;47026;51.208;3.288;2022-08-03T05:29:12;15.45;;;5.30;;
61144;SDS011;47026;51.208;3.288;2022-08-03T05:31:38;12.65;;;5.12;;
61144;SDS011;47026;51.208;3.288;2022-08-03T05:34:04;10.02;;;4.57;;
61144;SDS011;47026;51.208;3.288;2022-08-03T05:36:30;14.05;;;5.40;;
61144;SDS011;47026;51.208;3.288;2022-08-03T05:38:56;9.80;;;4.78;;
61144;SDS011;47026;51.208;3.288;2022-08-03T05:41:22;13.30;;;5.12;;
61144;SDS011;47026;51.208;3.288;2022-08-03T05:43:48;14.70;;;4.53;;
61144;SDS011;47026;51.208;3.288;2022-08-03T05:46:14;11.75;;;4.43;;
61144;SDS011;47026;51.208;3.288;2022-08-03T05:48:40;9.57;;;4.37;;
61144;SDS011;47026;51.208;3.288;2022-08-03T05:51:07;10.43;;;4.32;;
61144;SDS011;47026;51.208;3.288;2022-08-03T05:53:35;14.63;;;4.50;;
61144;SDS011;47026;51.208;3.288;2022-08-03T05:56:01;9.90;;;3.70;;
61144;SDS011;47026;51.208;3.288;2022-08-03T05:58:28;10.50;;;3.70;;
61144;SDS011;47026;51.208;3.288;2022-08-03T06:00:54;14.43;;;3.97;;
61144;SDS011;47026;51.208;3.288;2022-08-03T06:03:20;14.57;;;3.83;;
61144;SDS011;47026;51.208;3.288;2022-08-03T06:05:46;7.35;;;3.78;;
61144;SDS011;47026;51.208;3.288;2022-08-03T06:08:12;12.25;;;4.10;;
61144;SDS011;47026;51.208;3.288;2022-08-03T06:10:37;11.02;;;3.60;;
61144;SDS011;47026;51.208;3.288;2022-08-03T06:13:03;12.90;;;3.83;;
61144;SDS011;47026;51.208;3.288;2022-08-03T06:15:29;12.18;;;3.58;;
61144;SDS011;47026;51.208;3.288;2022-08-03T06:17:57;8.45;;;3.47;;
61144;SDS011;47026;51.208;3.288;2022-08-03T06:20:23;11.55;;;3.80;;
61144;SDS011;47026;51.208;3.288;2022-08-03T06:22:49;8.93;;;3.10;;
61144;SDS011;47026;51.208;3.288;2022-08-03T06:25:15;9.30;;;3.42;;
61144;SDS011;47026;51.208;3.288;2022-08-03T06:27:42;9.38;;;3.20;;
61144;SDS011;47026;51.208;3.288;2022-08-03T06:30:08;8.73;;;2.87;;
61144;SDS011;47026;51.208;3.288;2022-08-03T06:32:39;11.32;;;3.35;;
61144;SDS011;47026;51.208;3.288;2022-08-03T06:35:05;11.55;;;3.40;;
61144;SDS011;47026;51.208;3.288;2022-08-03T06:37:42;8.98;;;3.15;;
61144;SDS011;47026;51.208;3.288;2022-08-03T06:40:13;12.40;;;3.35;;
61144;SDS011;47026;51.208;3.288;2022-08-03T06:42:44;13.77;;;3.17;;
61144;SDS011;47026;51.208;3.288;2022-08-03T06:45:11;8.98;;;3.15;;
61144;SDS011;47026;51.208;3.288;2022-08-03T06:47:37;12.50;;;3.10;;
61144;SDS011;47026;51.208;3.288;2022-08-03T06:50:04;11.68;;;3.42;;
61144;SDS011;47026;51.208;3.288;2022-08-03T06:52:31;12.37;;;4.35;;
61144;SDS011;47026;51.208;3.288;2022-08-03T06:54:57;13.40;;;3.00;;
61144;SDS011;47026;51.208;3.288;2022-08-03T06:57:23;9.77;;;2.80;;
61144;SDS011;47026;51.208;3.288;2022-08-03T06:59:49;15.00;;;3.55;;
61144;SDS011;47026;51.208;3.288;2022-08-03T07:02:16;11.70;;;3.17;;
61144;SDS011;47026;51.208;3.288;2022-08-03T07:04:43;10.18;;;2.70;;
61144;SDS011;47026;51.208;3.288;2022-08-03T07:07:09;9.35;;;2.28;;
61144;SDS011;47026;51.208;3.288;2022-08-03T07:09:35;11.12;;;2.67;;
61144;SDS011;47026;51.208;3.288;2022-08-03T07:12:01;11.18;;;2.53;;
61144;SDS011;47026;51.208;3.288;2022-08-03T07:14:28;11.65;;;2.45;;
61144;SDS011;47026;51.208;3.288;2022-08-03T07:16:54;9.75;;;1.98;;
61144;SDS011;47026;51.208;3.288;2022-08-03T07:19:20;9.73;;;2.40;;
61144;SDS011;47026;51.208;3.288;2022-08-03T07:21:45;11.93;;;2.72;;
61144;SDS011;47026;51.208;3.288;2022-08-03T07:24:11;10.98;;;2.15;;
61144;SDS011;47026;51.208;3.288;2022-08-03T07:26:37;11.75;;;2.40;;
61144;SDS011;47026;51.208;3.288;2022-08-03T07:29:12;10.40;;;2.42;;
61144;SDS011;47026;51.208;3.288;2022-08-03T07:31:38;13.10;;;3.07;;
61144;SDS011;47026;51.208;3.288;2022-08-03T07:34:04;7.87;;;2.00;;
61144;SDS011;47026;51.208;3.288;2022-08-03T07:36:29;12.48;;;2.35;;
61144;SDS011;47026;51.208;3.288;2022-08-03T07:38:56;8.70;;;2.17;;
61144;SDS011;47026;51.208;3.288;2022-08-03T07:41:22;9.85;;;2.62;;
61144;SDS011;47026;51.208;3.288;2022-08-03T07:43:48;11.35;;;3.08;;
61144;SDS011;47026;51.208;3.288;2022-08-03T07:46:14;8.82;;;2.40;;
61144;SDS011;47026;51.208;3.288;2022-08-03T07:48:40;9.82;;;2.25;;
61144;SDS011;47026;51.208;3.288;2022-08-03T07:51:06;6.97;;;2.47;;
61144;SDS011;47026;51.208;3.288;2022-08-03T07:53:32;9.50;;;2.37;;
61144;SDS011;47026;51.208;3.288;2022-08-03T07:55:57;12.82;;;2.60;;
61144;SDS011;47026;51.208;3.288;2022-08-03T07:58:23;9.75;;;2.67;;
61144;SDS011;47026;51.208;3.288;2022-08-03T08:00:49;10.77;;;2.10;;
61144;SDS011;47026;51.208;3.288;2022-08-03T08:03:16;8.27;;;1.90;;
61144;SDS011;47026;51.208;3.288;2022-08-03T08:05:42;7.30;;;2.30;;
61144;SDS011;47026;51.208;3.288;2022-08-03T08:08:08;7.87;;;2.12;;
61144;SDS011;47026;51.208;3.288;2022-08-03T08:10:35;7.57;;;2.12;;
61144;SDS011;47026;51.208;3.288;2022-08-03T08:13:01;9.00;;;2.12;;
61144;SDS011;47026;51.208;3.288;2022-08-03T08:15:30;14.73;;;2.08;;
61144;SDS011;47026;51.208;3.288;2022-08-03T08:17:57;9.55;;;1.92;;
61144;SDS011;47026;51.208;3.288;2022-08-03T08:20:24;10.30;;;1.90;;
61144;SDS011;47026;51.208;3.288;2022-08-03T08:22:58;10.85;;;1.98;;
61144;SDS011;47026;51.208;3.288;2022-08-03T08:25:25;7.57;;;2.20;;
61144;SDS011;47026;51.208;3.288;2022-08-03T08:27:51;8.05;;;2.00;;
61144;SDS011;47026;51.208;3.288;2022-08-03T08:30:17;9.70;;;2.03;;
61144;SDS011;47026;51.208;3.288;2022-08-03T08:32:44;6.45;;;2.45;;
61144;SDS011;47026;51.208;3.288;2022-08-03T08:35:11;13.90;;;2.50;;
61144;SDS011;47026;51.208;3.288;2022-08-03T08:37:37;11.38;;;2.12;;
61144;SDS011;47026;51.208;3.288;2022-08-03T08:40:04;6.20;;;2.15;;
61144;SDS011;47026;51.208;3.288;2022-08-03T08:42:31;15.65;;;2.92;;
61144;SDS011;47026;51.208;3.288;2022-08-03T08:44:58;10.40;;;2.55;;
61144;SDS011;47026;51.208;3.288;2022-08-03T08:47:28;9.45;;;2.15;;
61144;SDS011;47026;51.208;3.288;2022-08-03T08:49:55;10.00;;;2.17;;
61144;SDS011;47026;51.208;3.288;2022-08-03T08:52:26;9.55;;;2.10;;
61144;SDS011;47026;51.208;3.288;2022-08-03T08:54:54;13.88;;;2.03;;
61144;SDS011;47026;51.208;3.288;2022-08-03T08:57:27;9.18;;;2.45;;
61144;SDS011;47026;51.208;3.288;2022-08-03T08:59:57;11.98;;;2.15;;
61144;SDS011;47026;51.208;3.288;2022-08-03T09:02:25;8.10;;;2.10;;
61144;SDS011;47026;51.208;3.288;2022-08-03T09:04:54;6.55;;;1.90;;
61144;SDS011;47026;51.208;3.288;2022-08-03T09:07:21;8.50;;;1.85;;
61144;SDS011;47026;51.208;3.288;2022-08-03T09:09:47;8.70;;;1.80;;
61144;SDS011;47026;51.208;3.288;2022-08-03T09:12:13;6.70;;;2.33;;
61144;SDS011;47026;51.208;3.288;2022-08-03T09:14:39;6.05;;;1.77;;
61144;SDS011;47026;51.208;3.288;2022-08-03T09:17:05;10.70;;;1.80;;
61144;SDS011;47026;51.208;3.288;2022-08-03T09:19:33;6.05;;;2.00;;
61144;SDS011;47026;51.208;3.288;2022-08-03T09:22:17;6.43;;;1.62;;
61144;SDS011;47026;51.208;3.288;2022-08-03T09:24:53;9.23;;;1.98;;
61144;SDS011;47026;51.208;3.288;2022-08-03T09:27:24;11.55;;;1.90;;
61144;SDS011;47026;51.208;3.288;2022-08-03T09:29:51;10.23;;;2.10;;
61144;SDS011;47026;51.208;3.288;2022-08-03T09:32:18;7.75;;;1.90;;
61144;SDS011;47026;51.208;3.288;2022-08-03T09:34:49;9.05;;;2.40;;
61144;SDS011;47026;51.208;3.288;2022-08-03T09:37:17;10.73;;;1.87;;
61144;SDS011;47026;51.208;3.288;2022-08-03T09:39:45;11.75;;;2.20;;
61144;SDS011;47026;51.208;3.288;2022-08-03T09:42:13;10.10;;;1.85;;
61144;SDS011;47026;51.208;3.288;2022-08-03T09:44:45;9.65;;;2.08;;
61144;SDS011;47026;51.208;3.288;2022-08-03T09:47:13;9.93;;;2.00;;
61144;SDS011;47026;51.208;3.288;2022-08-03T09:49:59;8.00;;;1.90;;
61144;SDS011;47026;51.208;3.288;2022-08-03T09:52:33;8.48;;;1.90;;
61144;SDS011;47026;51.208;3.288;2022-08-03T09:55:11;7.72;;;1.92;;
61144;SDS011;47026;51.208;3.288;2022-08-03T09:57:38;7.45;;;1.62;;
61144;SDS011;47026;51.208;3.288;2022-08-03T10:00:22;7.22;;;1.70;;
61144;SDS011;47026;51.208;3.288;2022-08-03T10:02:48;7.20;;;1.80;;
61144;SDS011;47026;51.208;3.288;2022-08-03T10:05:32;7.25;;;1.60;;
61144;SDS011;47026;51.208;3.288;2022-08-03T10:07:58;9.40;;;2.58;;
61144;SDS011;47026;51.208;3.288;2022-08-03T10:10:24;8.50;;;1.60;;
61144;SDS011;47026;51.208;3.288;2022-08-03T10:12:50;7.22;;;1.70;;
61144;SDS011;47026;51.208;3.288;2022-08-03T10:15:16;5.00;;;1.52;;
61144;SDS011;47026;51.208;3.288;2022-08-03T10:17:42;13.90;;;1.98;;
61144;SDS011;47026;51.208;3.288;2022-08-03T10:20:08;8.35;;;1.90;;
61144;SDS011;47026;51.208;3.288;2022-08-03T10:22:35;8.23;;;1.95;;
61144;SDS011;47026;51.208;3.288;2022-08-03T10:25:06;10.48;;;1.83;;
61144;SDS011;47026;51.208;3.288;2022-08-03T10:27:35;10.98;;;1.92;;
61144;SDS011;47026;51.208;3.288;2022-08-03T10:30:04;7.47;;;1.62;;
61144;SDS011;47026;51.208;3.288;2022-08-03T10:35:04;5.35;;;2.00;;
61144;SDS011;47026;51.208;3.288;2022-08-03T10:37:33;8.52;;;1.90;;
61144;SDS011;47026;51.208;3.288;2022-08-03T10:40:13;5.93;;;2.10;;
61144;SDS011;47026;51.208;3.288;2022-08-03T10:42:44;5.62;;;1.60;;
61144;SDS011;47026;51.208;3.288;2022-08-03T10:45:17;5.12;;;2.10;;
61144;SDS011;47026;51.208;3.288;2022-08-03T10:47:47;7.07;;;1.83;;
61144;SDS011;47026;51.208;3.288;2022-08-03T10:50:15;6.82;;;1.77;;
61144;SDS011;47026;51.208;3.288;2022-08-03T10:53:15;5.12;;;1.70;;
61144;SDS011;47026;51.208;3.288;2022-08-03T10:55:35;6.72;;;1.52;;
61144;SDS011;47026;51.208;3.288;2022-08-03T11:01:09;6.25;;;2.03;;
61144;SDS011;47026;51.208;3.288;2022-08-03T11:08:45;4.57;;;1.50;;
61144;SDS011;47026;51.208;3.288;2022-08-03T11:14:26;6.07;;;1.62;;
61144;SDS011;47026;51.208;3.288;2022-08-03T11:16:38;4.43;;;1.23;;
61144;SDS011;47026;51.208;3.288;2022-08-03T11:19:10;5.72;;;1.58;;
61144;SDS011;47026;51.208;3.288;2022-08-03T11:29:59;4.70;;;1.40;;
61144;SDS011;47026;51.208;3.288;2022-08-03T11:35:25;2.92;;;1.02;;
61144;SDS011;47026;51.208;3.288;2022-08-03T11:46:05;4.93;;;1.30;;
61144;SDS011;47026;51.208;3.288;2022-08-03T11:48:49;5.30;;;1.40;;
61144;SDS011;47026;51.208;3.288;2022-08-03T11:51:22;5.32;;;1.62;;
61144;SDS011;47026;51.208;3.288;2022-08-03T11:54:03;7.35;;;1.35;;
61144;SDS011;47026;51.208;3.288;2022-08-03T11:56:43;4.82;;;1.37;;
61144;SDS011;47026;51.208;3.288;2022-08-03T11:59:14;4.50;;;1.27;;
61144;SDS011;47026;51.208;3.288;2022-08-03T12:01:42;3.80;;;1.27;;
61144;SDS011;47026;51.208;3.288;2022-08-03T12:04:09;3.47;;;1.05;;
61144;SDS011;47026;51.208;3.288;2022-08-03T12:06:39;3.85;;;1.10;;
61144;SDS011;47026;51.208;3.288;2022-08-03T12:09:21;3.70;;;1.35;;
61144;SDS011;47026;51.208;3.288;2022-08-03T12:11:47;3.42;;;1.30;;
61144;SDS011;47026;51.208;3.288;2022-08-03T12:14:18;6.22;;;1.58;;
61144;SDS011;47026;51.208;3.288;2022-08-03T12:16:47;5.75;;;1.27;;
61144;SDS011;47026;51.208;3.288;2022-08-03T12:19:13;7.07;;;1.30;;
61144;SDS011;47026;51.208;3.288;2022-08-03T12:21:46;6.05;;;1.20;;
61144;SDS011;47026;51.208;3.288;2022-08-03T12:24:13;7.50;;;1.20;;
61144;SDS011;47026;51.208;3.288;2022-08-03T12:29:16;4.22;;;1.20;;
61144;SDS011;47026;51.208;3.288;2022-08-03T12:31:46;8.23;;;1.40;;
61144;SDS011;47026;51.208;3.288;2022-08-03T12:34:12;5.50;;;1.37;;
61144;SDS011;47026;51.208;3.288;2022-08-03T12:36:48;3.37;;;1.10;;
61144;SDS011;47026;51.208;3.288;2022-08-03T12:39:16;6.35;;;1.10;;
61144;SDS011;47026;51.208;3.288;2022-08-03T12:41:51;7.00;;;1.33;;
61144;SDS011;47026;51.208;3.288;2022-08-03T12:44:27;7.37;;;1.20;;
61144;SDS011;47026;51.208;3.288;2022-08-03T12:46:58;3.35;;;1.02;;
61144;SDS011;47026;51.208;3.288;2022-08-03T12:49:25;6.62;;;1.33;;
61144;SDS011;47026;51.208;3.288;2022-08-03T12:54:18;2.60;;;0.98;;
61144;SDS011;47026;51.208;3.288;2022-08-03T12:59:27;6.53;;;1.60;;
61144;SDS011;47026;51.208;3.288;2022-08-03T13:01:57;4.90;;;1.27;;
61144;SDS011;47026;51.208;3.288;2022-08-03T13:07:09;4.68;;;1.10;;
61144;SDS011;47026;51.208;3.288;2022-08-03T13:09:45;4.43;;;1.40;;
61144;SDS011;47026;51.208;3.288;2022-08-03T13:12:13;7.53;;;1.33;;
61144;SDS011;47026;51.208;3.288;2022-08-03T13:14:46;7.65;;;1.20;;
61144;SDS011;47026;51.208;3.288;2022-08-03T13:17:14;5.53;;;1.30;;
61144;SDS011;47026;51.208;3.288;2022-08-03T13:19:40;4.75;;;1.20;;
61144;SDS011;47026;51.208;3.288;2022-08-03T13:22:23;7.57;;;1.40;;
61144;SDS011;47026;51.208;3.288;2022-08-03T13:24:53;3.72;;;1.10;;
61144;SDS011;47026;51.208;3.288;2022-08-03T13:27:22;4.80;;;0.90;;
61144;SDS011;47026;51.208;3.288;2022-08-03T13:29:49;4.32;;;1.05;;
61144;SDS011;47026;51.208;3.288;2022-08-03T13:32:17;2.97;;;1.10;;
61144;SDS011;47026;51.208;3.288;2022-08-03T13:34:43;6.10;;;1.52;;
61144;SDS011;47026;51.208;3.288;2022-08-03T13:37:09;4.93;;;1.23;;
61144;SDS011;47026;51.208;3.288;2022-08-03T13:39:36;4.37;;;1.20;;
61144;SDS011;47026;51.208;3.288;2022-08-03T13:42:02;2.90;;;1.20;;
61144;SDS011;47026;51.208;3.288;2022-08-03T13:44:29;6.05;;;1.33;;
61144;SDS011;47026;51.208;3.288;2022-08-03T13:46:56;3.87;;;1.17;;
61144;SDS011;47026;51.208;3.288;2022-08-03T13:49:24;3.78;;;1.40;;
61144;SDS011;47026;51.208;3.288;2022-08-03T13:51:51;5.43;;;1.27;;
61144;SDS011;47026;51.208;3.288;2022-08-03T13:54:17;5.57;;;1.30;;
61144;SDS011;47026;51.208;3.288;2022-08-03T13:56:43;7.53;;;1.20;;
61144;SDS011;47026;51.208;3.288;2022-08-03T13:59:20;6.18;;;2.22;;
61144;SDS011;47026;51.208;3.288;2022-08-03T14:01:47;6.05;;;1.17;;
61144;SDS011;47026;51.208;3.288;2022-08-03T14:04:14;6.25;;;1.20;;
61144;SDS011;47026;51.208;3.288;2022-08-03T14:06:40;6.57;;;1.30;;
61144;SDS011;47026;51.208;3.288;2022-08-03T14:09:08;6.30;;;1.37;;
61144;SDS011;47026;51.208;3.288;2022-08-03T14:11:34;5.93;;;1.30;;
61144;SDS011;47026;51.208;3.288;2022-08-03T14:14:00;2.90;;;1.12;;
61144;SDS011;47026;51.208;3.288;2022-08-03T14:16:25;4.75;;;1.10;;
61144;SDS011;47026;51.208;3.288;2022-08-03T14:18:51;5.65;;;1.40;;
61144;SDS011;47026;51.208;3.288;2022-08-03T14:21:17;10.73;;;1.80;;
61144;SDS011;47026;51.208;3.288;2022-08-03T14:23:43;6.57;;;1.70;;
61144;SDS011;47026;51.208;3.288;2022-08-03T14:26:09;8.15;;;1.73;;
61144;SDS011;47026;51.208;3.288;2022-08-03T14:28:36;11.70;;;2.05;;
61144;SDS011;47026;51.208;3.288;2022-08-03T14:31:02;9.90;;;2.08;;
61144;SDS011;47026;51.208;3.288;2022-08-03T14:33:28;8.02;;;1.83;;
61144;SDS011;47026;51.208;3.288;2022-08-03T14:35:54;8.10;;;2.20;;
61144;SDS011;47026;51.208;3.288;2022-08-03T14:38:20;4.68;;;1.80;;
61144;SDS011;47026;51.208;3.288;2022-08-03T14:40:47;6.12;;;2.15;;
61144;SDS011;47026;51.208;3.288;2022-08-03T14:43:13;9.70;;;1.70;;
61144;SDS011;47026;51.208;3.288;2022-08-03T14:45:41;5.22;;;1.70;;
61144;SDS011;47026;51.208;3.288;2022-08-03T14:48:08;6.43;;;2.15;;
61144;SDS011;47026;51.208;3.288;2022-08-03T14:50:34;8.43;;;2.00;;
61144;SDS011;47026;51.208;3.288;2022-08-03T14:53:00;10.73;;;2.08;;
61144;SDS011;47026;51.208;3.288;2022-08-03T14:55:25;5.05;;;1.83;;
61144;SDS011;47026;51.208;3.288;2022-08-03T14:57:51;7.85;;;2.08;;
61144;SDS011;47026;51.208;3.288;2022-08-03T15:00:17;11.35;;;2.30;;
61144;SDS011;47026;51.208;3.288;2022-08-03T15:02:43;6.70;;;2.00;;
61144;SDS011;47026;51.208;3.288;2022-08-03T15:05:09;7.53;;;2.08;;
61144;SDS011;47026;51.208;3.288;2022-08-03T15:07:37;7.07;;;2.00;;
61144;SDS011;47026;51.208;3.288;2022-08-03T15:10:03;6.60;;;2.25;;
61144;SDS011;47026;51.208;3.288;2022-08-03T15:12:29;8.23;;;2.22;;
61144;SDS011;47026;51.208;3.288;2022-08-03T15:14:56;7.18;;;1.77;;
61144;SDS011;47026;51.208;3.288;2022-08-03T15:17:22;10.07;;;1.95;;
61144;SDS011;47026;51.208;3.288;2022-08-03T15:19:48;9.40;;;2.00;;
61144;SDS011;47026;51.208;3.288;2022-08-03T15:22:14;8.95;;;1.87;;
61144;SDS011;47026;51.208;3.288;2022-08-03T15:24:41;9.30;;;2.17;;
61144;SDS011;47026;51.208;3.288;2022-08-03T15:27:07;8.43;;;2.37;;
61144;SDS011;47026;51.208;3.288;2022-08-03T15:29:33;10.32;;;2.10;;
61144;SDS011;47026;51.208;3.288;2022-08-03T15:31:59;8.35;;;2.10;;
61144;SDS011;47026;51.208;3.288;2022-08-03T15:34:25;9.23;;;2.37;;
61144;SDS011;47026;51.208;3.288;2022-08-03T15:36:51;6.03;;;1.67;;
61144;SDS011;47026;51.208;3.288;2022-08-03T15:39:16;10.43;;;2.33;;
61144;SDS011;47026;51.208;3.288;2022-08-03T15:41:42;10.02;;;2.53;;
61144;SDS011;47026;51.208;3.288;2022-08-03T15:44:09;10.50;;;2.03;;
61144;SDS011;47026;51.208;3.288;2022-08-03T15:46:35;8.32;;;1.70;;
61144;SDS011;47026;51.208;3.288;2022-08-03T15:49:00;5.03;;;1.95;;
61144;SDS011;47026;51.208;3.288;2022-08-03T15:51:26;9.00;;;2.03;;
61144;SDS011;47026;51.208;3.288;2022-08-03T15:53:52;10.68;;;2.65;;